sensor_id;sensor_type;location;lat;lon;timestamp;P1;P2;P0
67892;PMS7003;54688;52.376;16.744;2023-03-01T00:00:09;114;95;
67892;PMS7003;54688;52.376;16.744;2023-03-01T00:03:56;122;91;
67892;PMS7003;54688;52.376;16.744;2023-03-01T00:06:58;110;86;
67892;PMS7003;54688;52.376;16.744;2023-03-01T00:10:00;108;84;
67892;PMS7003;54688;52.376;16.744;2023-03-01T00:13:02;101;84;
67892;PMS7003;54688;52.376;16.744;2023-03-01T00:16:06;113;84;
67892;PMS7003;54688;52.376;16.744;2023-03-01T00:19:12;104;75;
67892;PMS7003;54688;52.376;16.744;2023-03-01T00:22:14;96;75;
67892;PMS7003;54688;52.376;16.744;2023-03-01T00:25:17;107;82;
67892;PMS7003;54688;52.376;16.744;2023-03-01T00:28:19;91;70;
67892;PMS7003;54688;52.376;16.744;2023-03-01T00:31:24;98;76;
67892;PMS7003;54688;52.376;16.744;2023-03-01T00:34:27;96;77;
67892;PMS7003;54688;52.376;16.744;2023-03-01T00:37:29;94;67;
67892;PMS7003;54688;52.376;16.744;2023-03-01T00:40:34;87;64;
67892;PMS7003;54688;52.376;16.744;2023-03-01T00:43:36;90;73;
67892;PMS7003;54688;52.376;16.744;2023-03-01T00:46:39;92;66;
67892;PMS7003;54688;52.376;16.744;2023-03-01T00:49:41;91;63;
67892;PMS7003;54688;52.376;16.744;2023-03-01T00:52:44;90;72;
67892;PMS7003;54688;52.376;16.744;2023-03-01T00:55:47;91;70;
67892;PMS7003;54688;52.376;16.744;2023-03-01T00:58:49;95;66;
67892;PMS7003;54688;52.376;16.744;2023-03-01T01:01:52;90;62;
67892;PMS7003;54688;52.376;16.744;2023-03-01T01:04:54;92;66;
67892;PMS7003;54688;52.376;16.744;2023-03-01T01:07:56;88;61;
67892;PMS7003;54688;52.376;16.744;2023-03-01T01:10:59;84;57;
67892;PMS7003;54688;52.376;16.744;2023-03-01T01:16:59;88;63;
67892;PMS7003;54688;52.376;16.744;2023-03-01T01:20:04;89;64;
67892;PMS7003;54688;52.376;16.744;2023-03-01T01:23:06;84;56;
67892;PMS7003;54688;52.376;16.744;2023-03-01T01:26:11;86;64;
67892;PMS7003;54688;52.376;16.744;2023-03-01T01:29:14;90;62;
67892;PMS7003;54688;52.376;16.744;2023-03-01T01:32:16;87;59;
67892;PMS7003;54688;52.376;16.744;2023-03-01T01:35:18;83;61;
67892;PMS7003;54688;52.376;16.744;2023-03-01T01:38:21;89;64;
67892;PMS7003;54688;52.376;16.744;2023-03-01T01:41:24;88;60;
67892;PMS7003;54688;52.376;16.744;2023-03-01T01:44:28;84;62;
67892;PMS7003;54688;52.376;16.744;2023-03-01T01:47:31;84;61;
67892;PMS7003;54688;52.376;16.744;2023-03-01T01:50:33;83;58;
67892;PMS7003;54688;52.376;16.744;2023-03-01T01:53:38;88;61;
67892;PMS7003;54688;52.376;16.744;2023-03-01T01:56:44;85;61;
67892;PMS7003;54688;52.376;16.744;2023-03-01T01:59:52;78;59;
67892;PMS7003;54688;52.376;16.744;2023-03-01T02:02:56;79;55;
67892;PMS7003;54688;52.376;16.744;2023-03-01T02:06:03;80;59;
67892;PMS7003;54688;52.376;16.744;2023-03-01T02:09:12;81;60;
67892;PMS7003;54688;52.376;16.744;2023-03-01T02:12:16;86;61;
67892;PMS7003;54688;52.376;16.744;2023-03-01T02:15:20;90;63;
67892;PMS7003;54688;52.376;16.744;2023-03-01T02:18:23;84;63;
67892;PMS7003;54688;52.376;16.744;2023-03-01T02:21:34;86;60;
67892;PMS7003;54688;52.376;16.744;2023-03-01T02:24:45;80;59;
67892;PMS7003;54688;52.376;16.744;2023-03-01T02:27:55;79;58;
67892;PMS7003;54688;52.376;16.744;2023-03-01T02:30:59;84;61;
67892;PMS7003;54688;52.376;16.744;2023-03-01T02:34:01;84;62;
67892;PMS7003;54688;52.376;16.744;2023-03-01T02:37:06;86;63;
67892;PMS7003;54688;52.376;16.744;2023-03-01T02:40:13;86;62;
67892;PMS7003;54688;52.376;16.744;2023-03-01T02:43:19;83;59;
67892;PMS7003;54688;52.376;16.744;2023-03-01T02:49:24;101;67;
67892;PMS7003;54688;52.376;16.744;2023-03-01T02:52:33;84;63;
67892;PMS7003;54688;52.376;16.744;2023-03-01T02:55:36;90;63;
67892;PMS7003;54688;52.376;16.744;2023-03-01T02:58:39;89;67;
67892;PMS7003;54688;52.376;16.744;2023-03-01T03:01:42;87;65;
67892;PMS7003;54688;52.376;16.744;2023-03-01T03:04:45;88;66;
67892;PMS7003;54688;52.376;16.744;2023-03-01T03:07:48;92;68;
67892;PMS7003;54688;52.376;16.744;2023-03-01T03:10:51;90;66;
67892;PMS7003;54688;52.376;16.744;2023-03-01T03:13:53;86;63;
67892;PMS7003;54688;52.376;16.744;2023-03-01T03:16:55;94;63;
67892;PMS7003;54688;52.376;16.744;2023-03-01T03:19:58;85;63;
67892;PMS7003;54688;52.376;16.744;2023-03-01T03:23:00;88;62;
67892;PMS7003;54688;52.376;16.744;2023-03-01T03:26:02;88;63;
67892;PMS7003;54688;52.376;16.744;2023-03-01T03:29:04;96;65;
67892;PMS7003;54688;52.376;16.744;2023-03-01T03:32:07;90;63;
67892;PMS7003;54688;52.376;16.744;2023-03-01T03:35:10;89;64;
67892;PMS7003;54688;52.376;16.744;2023-03-01T03:38:13;91;65;
67892;PMS7003;54688;52.376;16.744;2023-03-01T03:44:15;94;63;
67892;PMS7003;54688;52.376;16.744;2023-03-01T03:47:17;89;73;
67892;PMS7003;54688;52.376;16.744;2023-03-01T03:50:20;86;66;
67892;PMS7003;54688;52.376;16.744;2023-03-01T03:53:23;86;63;
67892;PMS7003;54688;52.376;16.744;2023-03-01T03:56:26;95;67;
67892;PMS7003;54688;52.376;16.744;2023-03-01T03:59:28;83;64;
67892;PMS7003;54688;52.376;16.744;2023-03-01T04:02:30;89;63;
67892;PMS7003;54688;52.376;16.744;2023-03-01T04:05:33;93;65;
67892;PMS7003;54688;52.376;16.744;2023-03-01T04:08:35;93;63;
67892;PMS7003;54688;52.376;16.744;2023-03-01T04:11:37;85;60;
67892;PMS7003;54688;52.376;16.744;2023-03-01T04:14:40;89;64;
67892;PMS7003;54688;52.376;16.744;2023-03-01T04:20:42;91;63;
67892;PMS7003;54688;52.376;16.744;2023-03-01T04:23:45;92;64;
67892;PMS7003;54688;52.376;16.744;2023-03-01T04:26:47;94;67;
67892;PMS7003;54688;52.376;16.744;2023-03-01T04:29:49;90;65;
67892;PMS7003;54688;52.376;16.744;2023-03-01T04:32:52;88;65;
67892;PMS7003;54688;52.376;16.744;2023-03-01T04:35:54;95;64;
67892;PMS7003;54688;52.376;16.744;2023-03-01T04:38:57;94;67;
67892;PMS7003;54688;52.376;16.744;2023-03-01T04:41:59;91;68;
67892;PMS7003;54688;52.376;16.744;2023-03-01T04:45:01;95;66;
67892;PMS7003;54688;52.376;16.744;2023-03-01T04:48:04;99;64;
67892;PMS7003;54688;52.376;16.744;2023-03-01T04:51:07;94;70;
67892;PMS7003;54688;52.376;16.744;2023-03-01T04:54:09;98;74;
67892;PMS7003;54688;52.376;16.744;2023-03-01T04:57:11;92;66;
67892;PMS7003;54688;52.376;16.744;2023-03-01T05:00:15;97;66;
67892;PMS7003;54688;52.376;16.744;2023-03-01T05:03:18;97;70;
67892;PMS7003;54688;52.376;16.744;2023-03-01T05:06:20;94;74;
67892;PMS7003;54688;52.376;16.744;2023-03-01T05:09:22;92;66;
67892;PMS7003;54688;52.376;16.744;2023-03-01T05:15:24;96;70;
67892;PMS7003;54688;52.376;16.744;2023-03-01T05:18:27;96;73;
67892;PMS7003;54688;52.376;16.744;2023-03-01T05:21:30;96;69;
67892;PMS7003;54688;52.376;16.744;2023-03-01T05:24:34;98;71;
67892;PMS7003;54688;52.376;16.744;2023-03-01T05:27:36;90;66;
67892;PMS7003;54688;52.376;16.744;2023-03-01T05:30:39;97;71;
67892;PMS7003;54688;52.376;16.744;2023-03-01T05:33:41;96;77;
67892;PMS7003;54688;52.376;16.744;2023-03-01T05:39:42;101;80;
67892;PMS7003;54688;52.376;16.744;2023-03-01T05:42:45;94;71;
67892;PMS7003;54688;52.376;16.744;2023-03-01T05:45:47;96;73;
67892;PMS7003;54688;52.376;16.744;2023-03-01T05:48:49;98;71;
67892;PMS7003;54688;52.376;16.744;2023-03-01T05:51:53;97;72;
67892;PMS7003;54688;52.376;16.744;2023-03-01T05:54:55;102;78;
67892;PMS7003;54688;52.376;16.744;2023-03-01T05:57:59;98;78;
67892;PMS7003;54688;52.376;16.744;2023-03-01T06:01:01;88;66;
67892;PMS7003;54688;52.376;16.744;2023-03-01T06:04:04;110;86;
67892;PMS7003;54688;52.376;16.744;2023-03-01T06:07:07;104;76;
67892;PMS7003;54688;52.376;16.744;2023-03-01T06:10:11;108;71;
67892;PMS7003;54688;52.376;16.744;2023-03-01T06:13:14;101;75;
67892;PMS7003;54688;52.376;16.744;2023-03-01T06:16:16;94;74;
67892;PMS7003;54688;52.376;16.744;2023-03-01T06:19:18;97;75;
67892;PMS7003;54688;52.376;16.744;2023-03-01T06:22:21;103;82;
67892;PMS7003;54688;52.376;16.744;2023-03-01T06:25:25;104;86;
67892;PMS7003;54688;52.376;16.744;2023-03-01T06:28:28;94;75;
67892;PMS7003;54688;52.376;16.744;2023-03-01T06:31:30;102;85;
67892;PMS7003;54688;52.376;16.744;2023-03-01T06:34:31;108;77;
67892;PMS7003;54688;52.376;16.744;2023-03-01T06:37:34;105;88;
67892;PMS7003;54688;52.376;16.744;2023-03-01T06:40:36;101;79;
67892;PMS7003;54688;52.376;16.744;2023-03-01T06:43:39;103;88;
67892;PMS7003;54688;52.376;16.744;2023-03-01T06:46:41;97;86;
67892;PMS7003;54688;52.376;16.744;2023-03-01T06:49:43;122;89;
67892;PMS7003;54688;52.376;16.744;2023-03-01T06:52:45;129;98;
67892;PMS7003;54688;52.376;16.744;2023-03-01T06:55:47;108;86;
67892;PMS7003;54688;52.376;16.744;2023-03-01T06:58:51;104;79;
67892;PMS7003;54688;52.376;16.744;2023-03-01T07:01:53;101;81;
67892;PMS7003;54688;52.376;16.744;2023-03-01T07:04:55;94;75;
67892;PMS7003;54688;52.376;16.744;2023-03-01T07:07:58;97;75;
67892;PMS7003;54688;52.376;16.744;2023-03-01T07:11:00;105;78;
67892;PMS7003;54688;52.376;16.744;2023-03-01T07:14:02;110;79;
67892;PMS7003;54688;52.376;16.744;2023-03-01T07:17:04;93;76;
67892;PMS7003;54688;52.376;16.744;2023-03-01T07:20:07;102;74;
67892;PMS7003;54688;52.376;16.744;2023-03-01T07:23:10;102;78;
67892;PMS7003;54688;52.376;16.744;2023-03-01T07:26:13;101;83;
67892;PMS7003;54688;52.376;16.744;2023-03-01T07:29:15;101;83;
67892;PMS7003;54688;52.376;16.744;2023-03-01T07:32:17;94;81;
67892;PMS7003;54688;52.376;16.744;2023-03-01T07:35:19;95;74;
67892;PMS7003;54688;52.376;16.744;2023-03-01T07:38:21;102;78;
67892;PMS7003;54688;52.376;16.744;2023-03-01T07:41:23;90;67;
67892;PMS7003;54688;52.376;16.744;2023-03-01T07:44:26;93;71;
67892;PMS7003;54688;52.376;16.744;2023-03-01T07:47:27;94;71;
67892;PMS7003;54688;52.376;16.744;2023-03-01T07:50:30;92;68;
67892;PMS7003;54688;52.376;16.744;2023-03-01T07:53:33;85;62;
67892;PMS7003;54688;52.376;16.744;2023-03-01T07:56:35;86;63;
67892;PMS7003;54688;52.376;16.744;2023-03-01T07:59:37;93;63;
67892;PMS7003;54688;52.376;16.744;2023-03-01T08:02:39;84;65;
67892;PMS7003;54688;52.376;16.744;2023-03-01T08:05:42;97;64;
67892;PMS7003;54688;52.376;16.744;2023-03-01T08:08:44;87;65;
67892;PMS7003;54688;52.376;16.744;2023-03-01T08:11:46;82;59;
67892;PMS7003;54688;52.376;16.744;2023-03-01T08:14:48;80;56;
67892;PMS7003;54688;52.376;16.744;2023-03-01T08:17:51;75;53;
67892;PMS7003;54688;52.376;16.744;2023-03-01T08:20:53;82;59;
67892;PMS7003;54688;52.376;16.744;2023-03-01T08:23:55;82;58;
67892;PMS7003;54688;52.376;16.744;2023-03-01T08:26:58;80;60;
67892;PMS7003;54688;52.376;16.744;2023-03-01T08:30:00;77;55;
67892;PMS7003;54688;52.376;16.744;2023-03-01T08:33:02;84;54;
67892;PMS7003;54688;52.376;16.744;2023-03-01T08:36:06;74;56;
67892;PMS7003;54688;52.376;16.744;2023-03-01T08:39:09;70;52;
67892;PMS7003;54688;52.376;16.744;2023-03-01T08:42:11;71;51;
67892;PMS7003;54688;52.376;16.744;2023-03-01T08:45:13;65;49;
67892;PMS7003;54688;52.376;16.744;2023-03-01T08:48:15;62;49;
67892;PMS7003;54688;52.376;16.744;2023-03-01T08:51:18;49;39;
67892;PMS7003;54688;52.376;16.744;2023-03-01T08:54:21;51;39;
67892;PMS7003;54688;52.376;16.744;2023-03-01T08:57:23;49;40;
67892;PMS7003;54688;52.376;16.744;2023-03-01T09:00:26;55;41;
67892;PMS7003;54688;52.376;16.744;2023-03-01T09:03:28;52;39;
67892;PMS7003;54688;52.376;16.744;2023-03-01T09:06:31;40;34;
67892;PMS7003;54688;52.376;16.744;2023-03-01T09:09:33;47;35;
67892;PMS7003;54688;52.376;16.744;2023-03-01T09:12:36;43;31;
67892;PMS7003;54688;52.376;16.744;2023-03-01T09:15:38;38;32;
67892;PMS7003;54688;52.376;16.744;2023-03-01T09:21:40;30;21;
67892;PMS7003;54688;52.376;16.744;2023-03-01T09:24:42;24;20;
67892;PMS7003;54688;52.376;16.744;2023-03-01T09:27:44;27;24;
67892;PMS7003;54688;52.376;16.744;2023-03-01T09:30:47;21;18;
67892;PMS7003;54688;52.376;16.744;2023-03-01T09:33:51;24;18;
67892;PMS7003;54688;52.376;16.744;2023-03-01T09:36:54;36;26;
67892;PMS7003;54688;52.376;16.744;2023-03-01T09:39:56;29;23;
67892;PMS7003;54688;52.376;16.744;2023-03-01T09:43:03;27;23;
67892;PMS7003;54688;52.376;16.744;2023-03-01T09:46:10;29;22;
67892;PMS7003;54688;52.376;16.744;2023-03-01T09:49:15;28;28;
67892;PMS7003;54688;52.376;16.744;2023-03-01T09:52:24;34;28;
67892;PMS7003;54688;52.376;16.744;2023-03-01T09:55:31;22;16;
67892;PMS7003;54688;52.376;16.744;2023-03-01T09:58:41;14;14;
67892;PMS7003;54688;52.376;16.744;2023-03-01T10:01:54;24;20;
67892;PMS7003;54688;52.376;16.744;2023-03-01T10:05:09;23;20;
67892;PMS7003;54688;52.376;16.744;2023-03-01T10:11:20;22;17;
67892;PMS7003;54688;52.376;16.744;2023-03-01T10:14:30;31;23;
67892;PMS7003;54688;52.376;16.744;2023-03-01T10:17:37;21;18;
67892;PMS7003;54688;52.376;16.744;2023-03-01T10:20:45;19;16;
67892;PMS7003;54688;52.376;16.744;2023-03-01T10:23:50;18;16;
67892;PMS7003;54688;52.376;16.744;2023-03-01T10:26:55;17;14;
67892;PMS7003;54688;52.376;16.744;2023-03-01T10:30:06;17;15;
67892;PMS7003;54688;52.376;16.744;2023-03-01T10:33:17;19;17;
67892;PMS7003;54688;52.376;16.744;2023-03-01T10:36:20;17;15;
67892;PMS7003;54688;52.376;16.744;2023-03-01T10:39:25;29;18;
67892;PMS7003;54688;52.376;16.744;2023-03-01T10:42:30;18;17;
67892;PMS7003;54688;52.376;16.744;2023-03-01T10:45:35;24;17;
67892;PMS7003;54688;52.376;16.744;2023-03-01T10:48:38;22;15;
67892;PMS7003;54688;52.376;16.744;2023-03-01T10:51:40;27;21;
67892;PMS7003;54688;52.376;16.744;2023-03-01T10:54:51;19;16;
67892;PMS7003;54688;52.376;16.744;2023-03-01T10:58:08;22;18;
67892;PMS7003;54688;52.376;16.744;2023-03-01T11:01:25;32;26;
67892;PMS7003;54688;52.376;16.744;2023-03-01T11:04:27;24;21;
67892;PMS7003;54688;52.376;16.744;2023-03-01T11:07:29;21;16;
67892;PMS7003;54688;52.376;16.744;2023-03-01T11:10:33;29;24;
67892;PMS7003;54688;52.376;16.744;2023-03-01T11:16:38;29;27;
67892;PMS7003;54688;52.376;16.744;2023-03-01T11:19:40;22;19;
67892;PMS7003;54688;52.376;16.744;2023-03-01T11:22:46;25;21;
67892;PMS7003;54688;52.376;16.744;2023-03-01T11:25:55;28;25;
67892;PMS7003;54688;52.376;16.744;2023-03-01T11:29:02;28;23;
67892;PMS7003;54688;52.376;16.744;2023-03-01T11:32:07;28;20;
67892;PMS7003;54688;52.376;16.744;2023-03-01T11:35:15;23;23;
67892;PMS7003;54688;52.376;16.744;2023-03-01T11:38:22;26;23;
67892;PMS7003;54688;52.376;16.744;2023-03-01T11:41:26;24;20;
67892;PMS7003;54688;52.376;16.744;2023-03-01T11:44:31;27;20;
67892;PMS7003;54688;52.376;16.744;2023-03-01T11:47:47;21;19;
67892;PMS7003;54688;52.376;16.744;2023-03-01T11:50:54;22;18;
67892;PMS7003;54688;52.376;16.744;2023-03-01T11:54:11;22;20;
67892;PMS7003;54688;52.376;16.744;2023-03-01T11:57:20;19;16;
67892;PMS7003;54688;52.376;16.744;2023-03-01T12:00:41;23;18;
67892;PMS7003;54688;52.376;16.744;2023-03-01T12:03:59;24;18;
67892;PMS7003;54688;52.376;16.744;2023-03-01T12:07:10;22;16;
67892;PMS7003;54688;52.376;16.744;2023-03-01T12:10:22;17;16;
67892;PMS7003;54688;52.376;16.744;2023-03-01T12:13:53;23;18;
67892;PMS7003;54688;52.376;16.744;2023-03-01T12:17:09;25;20;
67892;PMS7003;54688;52.376;16.744;2023-03-01T12:20:22;17;14;
67892;PMS7003;54688;52.376;16.744;2023-03-01T12:23:44;22;19;
67892;PMS7003;54688;52.376;16.744;2023-03-01T12:27:00;21;17;
67892;PMS7003;54688;52.376;16.744;2023-03-01T12:30:17;16;14;
67892;PMS7003;54688;52.376;16.744;2023-03-01T12:33:27;15;15;
67892;PMS7003;54688;52.376;16.744;2023-03-01T12:36:45;17;17;
67892;PMS7003;54688;52.376;16.744;2023-03-01T12:39:57;15;13;
67892;PMS7003;54688;52.376;16.744;2023-03-01T12:43:17;18;15;
67892;PMS7003;54688;52.376;16.744;2023-03-01T12:46:32;16;12;
67892;PMS7003;54688;52.376;16.744;2023-03-01T12:49:39;18;13;
67892;PMS7003;54688;52.376;16.744;2023-03-01T12:52:46;14;12;
67892;PMS7003;54688;52.376;16.744;2023-03-01T12:55:51;21;13;
67892;PMS7003;54688;52.376;16.744;2023-03-01T12:59:01;17;14;
67892;PMS7003;54688;52.376;16.744;2023-03-01T13:05:34;16;12;
67892;PMS7003;54688;52.376;16.744;2023-03-01T13:08:42;17;15;
67892;PMS7003;54688;52.376;16.744;2023-03-01T13:11:45;16;14;
67892;PMS7003;54688;52.376;16.744;2023-03-01T13:14:48;17;13;
67892;PMS7003;54688;52.376;16.744;2023-03-01T13:17:53;19;13;
67892;PMS7003;54688;52.376;16.744;2023-03-01T13:20:57;13;13;
67892;PMS7003;54688;52.376;16.744;2023-03-01T13:23:59;19;15;
67892;PMS7003;54688;52.376;16.744;2023-03-01T13:27:26;13;13;
67892;PMS7003;54688;52.376;16.744;2023-03-01T13:30:44;20;15;
67892;PMS7003;54688;52.376;16.744;2023-03-01T13:33:47;15;13;
67892;PMS7003;54688;52.376;16.744;2023-03-01T13:36:49;13;13;
67892;PMS7003;54688;52.376;16.744;2023-03-01T13:39:51;16;12;
67892;PMS7003;54688;52.376;16.744;2023-03-01T13:42:54;13;13;
67892;PMS7003;54688;52.376;16.744;2023-03-01T13:45:57;16;11;
67892;PMS7003;54688;52.376;16.744;2023-03-01T13:49:00;15;13;
67892;PMS7003;54688;52.376;16.744;2023-03-01T13:52:02;23;14;
67892;PMS7003;54688;52.376;16.744;2023-03-01T13:55:16;16;14;
67892;PMS7003;54688;52.376;16.744;2023-03-01T13:58:22;14;12;
67892;PMS7003;54688;52.376;16.744;2023-03-01T14:01:27;18;16;
67892;PMS7003;54688;52.376;16.744;2023-03-01T14:04:31;17;14;
67892;PMS7003;54688;52.376;16.744;2023-03-01T14:07:33;15;12;
67892;PMS7003;54688;52.376;16.744;2023-03-01T14:10:42;16;10;
67892;PMS7003;54688;52.376;16.744;2023-03-01T14:13:54;9;9;
67892;PMS7003;54688;52.376;16.744;2023-03-01T14:17:14;15;14;
67892;PMS7003;54688;52.376;16.744;2023-03-01T14:20:22;17;13;
67892;PMS7003;54688;52.376;16.744;2023-03-01T14:23:26;15;12;
67892;PMS7003;54688;52.376;16.744;2023-03-01T14:26:37;10;7;
67892;PMS7003;54688;52.376;16.744;2023-03-01T14:29:39;9;7;
67892;PMS7003;54688;52.376;16.744;2023-03-01T14:32:41;17;10;
67892;PMS7003;54688;52.376;16.744;2023-03-01T14:35:53;10;10;
67892;PMS7003;54688;52.376;16.744;2023-03-01T14:38:55;7;7;
67892;PMS7003;54688;52.376;16.744;2023-03-01T14:41:58;11;8;
67892;PMS7003;54688;52.376;16.744;2023-03-01T14:45:00;11;9;
67892;PMS7003;54688;52.376;16.744;2023-03-01T14:48:05;9;6;
67892;PMS7003;54688;52.376;16.744;2023-03-01T14:51:11;16;13;
67892;PMS7003;54688;52.376;16.744;2023-03-01T14:54:20;14;11;
67892;PMS7003;54688;52.376;16.744;2023-03-01T14:57:25;9;7;
67892;PMS7003;54688;52.376;16.744;2023-03-01T15:00:30;12;10;
67892;PMS7003;54688;52.376;16.744;2023-03-01T15:03:34;10;9;
67892;PMS7003;54688;52.376;16.744;2023-03-01T15:06:37;8;7;
67892;PMS7003;54688;52.376;16.744;2023-03-01T15:09:40;11;9;
67892;PMS7003;54688;52.376;16.744;2023-03-01T15:12:42;9;5;
67892;PMS7003;54688;52.376;16.744;2023-03-01T15:15:45;11;8;
67892;PMS7003;54688;52.376;16.744;2023-03-01T15:18:50;9;8;
67892;PMS7003;54688;52.376;16.744;2023-03-01T15:21:55;11;10;
67892;PMS7003;54688;52.376;16.744;2023-03-01T15:24:57;11;9;
67892;PMS7003;54688;52.376;16.744;2023-03-01T15:28:01;11;11;
67892;PMS7003;54688;52.376;16.744;2023-03-01T15:31:11;12;11;
67892;PMS7003;54688;52.376;16.744;2023-03-01T15:34:23;14;9;
67892;PMS7003;54688;52.376;16.744;2023-03-01T15:37:45;12;12;
67892;PMS7003;54688;52.376;16.744;2023-03-01T15:40:49;14;10;
67892;PMS7003;54688;52.376;16.744;2023-03-01T15:43:52;20;14;
67892;PMS7003;54688;52.376;16.744;2023-03-01T15:46:54;13;13;
67892;PMS7003;54688;52.376;16.744;2023-03-01T15:49:56;11;11;
67892;PMS7003;54688;52.376;16.744;2023-03-01T15:53:03;20;16;
67892;PMS7003;54688;52.376;16.744;2023-03-01T15:56:07;19;13;
67892;PMS7003;54688;52.376;16.744;2023-03-01T15:59:10;13;12;
67892;PMS7003;54688;52.376;16.744;2023-03-01T16:02:12;20;16;
67892;PMS7003;54688;52.376;16.744;2023-03-01T16:05:19;15;14;
67892;PMS7003;54688;52.376;16.744;2023-03-01T16:08:21;13;13;
67892;PMS7003;54688;52.376;16.744;2023-03-01T16:11:23;15;9;
67892;PMS7003;54688;52.376;16.744;2023-03-01T16:14:26;14;12;
67892;PMS7003;54688;52.376;16.744;2023-03-01T16:17:27;17;17;
67892;PMS7003;54688;52.376;16.744;2023-03-01T16:20:29;17;15;
67892;PMS7003;54688;52.376;16.744;2023-03-01T16:23:32;20;17;
67892;PMS7003;54688;52.376;16.744;2023-03-01T16:26:34;32;26;
67892;PMS7003;54688;52.376;16.744;2023-03-01T16:29:37;38;30;
67892;PMS7003;54688;52.376;16.744;2023-03-01T16:35:39;28;17;
67892;PMS7003;54688;52.376;16.744;2023-03-01T16:38:41;22;18;
67892;PMS7003;54688;52.376;16.744;2023-03-01T16:41:43;27;25;
67892;PMS7003;54688;52.376;16.744;2023-03-01T16:44:45;38;32;
67892;PMS7003;54688;52.376;16.744;2023-03-01T16:47:47;54;42;
67892;PMS7003;54688;52.376;16.744;2023-03-01T16:50:58;55;43;
67892;PMS7003;54688;52.376;16.744;2023-03-01T16:54:00;58;43;
67892;PMS7003;54688;52.376;16.744;2023-03-01T16:57:02;53;41;
67892;PMS7003;54688;52.376;16.744;2023-03-01T17:00:09;77;62;
67892;PMS7003;54688;52.376;16.744;2023-03-01T17:03:12;61;47;
67892;PMS7003;54688;52.376;16.744;2023-03-01T17:06:16;47;37;
67892;PMS7003;54688;52.376;16.744;2023-03-01T17:09:18;57;44;
67892;PMS7003;54688;52.376;16.744;2023-03-01T17:12:20;70;51;
67892;PMS7003;54688;52.376;16.744;2023-03-01T17:15:22;78;66;
67892;PMS7003;54688;52.376;16.744;2023-03-01T17:18:24;85;65;
67892;PMS7003;54688;52.376;16.744;2023-03-01T17:21:26;98;78;
67892;PMS7003;54688;52.376;16.744;2023-03-01T17:24:32;63;48;
67892;PMS7003;54688;52.376;16.744;2023-03-01T17:27:35;55;41;
67892;PMS7003;54688;52.376;16.744;2023-03-01T17:30:40;68;50;
67892;PMS7003;54688;52.376;16.744;2023-03-01T17:33:43;66;49;
67892;PMS7003;54688;52.376;16.744;2023-03-01T17:36:45;68;53;
67892;PMS7003;54688;52.376;16.744;2023-03-01T17:39:47;74;58;
67892;PMS7003;54688;52.376;16.744;2023-03-01T17:42:49;60;45;
67892;PMS7003;54688;52.376;16.744;2023-03-01T17:45:51;57;41;
67892;PMS7003;54688;52.376;16.744;2023-03-01T17:48:53;56;40;
67892;PMS7003;54688;52.376;16.744;2023-03-01T17:51:55;51;38;
67892;PMS7003;54688;52.376;16.744;2023-03-01T17:54:58;51;36;
67892;PMS7003;54688;52.376;16.744;2023-03-01T17:58:00;57;40;
67892;PMS7003;54688;52.376;16.744;2023-03-01T18:01:07;64;47;
67892;PMS7003;54688;52.376;16.744;2023-03-01T18:04:10;78;59;
67892;PMS7003;54688;52.376;16.744;2023-03-01T18:07:13;74;54;
67892;PMS7003;54688;52.376;16.744;2023-03-01T18:10:15;77;58;
67892;PMS7003;54688;52.376;16.744;2023-03-01T18:13:18;75;53;
67892;PMS7003;54688;52.376;16.744;2023-03-01T18:16:21;84;63;
67892;PMS7003;54688;52.376;16.744;2023-03-01T18:19:23;81;62;
67892;PMS7003;54688;52.376;16.744;2023-03-01T18:22:25;81;60;
67892;PMS7003;54688;52.376;16.744;2023-03-01T18:25:28;88;70;
67892;PMS7003;54688;52.376;16.744;2023-03-01T18:31:30;92;74;
67892;PMS7003;54688;52.376;16.744;2023-03-01T18:34:32;84;65;
67892;PMS7003;54688;52.376;16.744;2023-03-01T18:37:34;73;57;
67892;PMS7003;54688;52.376;16.744;2023-03-01T18:40:36;80;64;
67892;PMS7003;54688;52.376;16.744;2023-03-01T18:43:38;82;66;
67892;PMS7003;54688;52.376;16.744;2023-03-01T18:46:40;89;72;
67892;PMS7003;54688;52.376;16.744;2023-03-01T18:49:42;92;82;
67892;PMS7003;54688;52.376;16.744;2023-03-01T18:52:44;88;66;
67892;PMS7003;54688;52.376;16.744;2023-03-01T18:55:46;83;65;
67892;PMS7003;54688;52.376;16.744;2023-03-01T18:58:49;81;64;
67892;PMS7003;54688;52.376;16.744;2023-03-01T19:01:51;83;64;
67892;PMS7003;54688;52.376;16.744;2023-03-01T19:04:53;76;57;
67892;PMS7003;54688;52.376;16.744;2023-03-01T19:07:55;67;49;
67892;PMS7003;54688;52.376;16.744;2023-03-01T19:11:02;67;50;
67892;PMS7003;54688;52.376;16.744;2023-03-01T19:14:05;82;64;
67892;PMS7003;54688;52.376;16.744;2023-03-01T19:17:07;102;75;
67892;PMS7003;54688;52.376;16.744;2023-03-01T19:20:11;120;91;
67892;PMS7003;54688;52.376;16.744;2023-03-01T19:23:13;98;77;
67892;PMS7003;54688;52.376;16.744;2023-03-01T19:26:17;82;64;
67892;PMS7003;54688;52.376;16.744;2023-03-01T19:29:20;120;86;
67892;PMS7003;54688;52.376;16.744;2023-03-01T19:32:22;90;66;
67892;PMS7003;54688;52.376;16.744;2023-03-01T19:35:24;78;58;
67892;PMS7003;54688;52.376;16.744;2023-03-01T19:38:27;78;57;
67892;PMS7003;54688;52.376;16.744;2023-03-01T19:41:31;80;58;
67892;PMS7003;54688;52.376;16.744;2023-03-01T19:44:33;114;86;
67892;PMS7003;54688;52.376;16.744;2023-03-01T19:47:36;124;94;
67892;PMS7003;54688;52.376;16.744;2023-03-01T19:50:38;123;95;
67892;PMS7003;54688;52.376;16.744;2023-03-01T19:53:40;97;73;
67892;PMS7003;54688;52.376;16.744;2023-03-01T19:56:42;111;91;
67892;PMS7003;54688;52.376;16.744;2023-03-01T19:59:45;95;74;
67892;PMS7003;54688;52.376;16.744;2023-03-01T20:02:47;87;70;
67892;PMS7003;54688;52.376;16.744;2023-03-01T20:05:50;93;68;
67892;PMS7003;54688;52.376;16.744;2023-03-01T20:08:53;79;58;
67892;PMS7003;54688;52.376;16.744;2023-03-01T20:11:55;81;61;
67892;PMS7003;54688;52.376;16.744;2023-03-01T20:14:57;86;68;
67892;PMS7003;54688;52.376;16.744;2023-03-01T20:17:59;83;61;
67892;PMS7003;54688;52.376;16.744;2023-03-01T20:21:03;87;72;
67892;PMS7003;54688;52.376;16.744;2023-03-01T20:24:05;94;74;
67892;PMS7003;54688;52.376;16.744;2023-03-01T20:27:09;121;98;
67892;PMS7003;54688;52.376;16.744;2023-03-01T20:30:12;107;91;
67892;PMS7003;54688;52.376;16.744;2023-03-01T20:33:14;107;80;
67892;PMS7003;54688;52.376;16.744;2023-03-01T20:36:16;92;71;
67892;PMS7003;54688;52.376;16.744;2023-03-01T20:39:19;111;87;